< < Back
Terminal Aerodrome Forecast


Current Version              Previous Versions:   1  2  3  4  5  6  7  8  9  

Terminal Aerodrome Forecast

354
FTUS42 KILM 012327
TAFILM
TAF
KILM 012327Z 0200/0224 20009KT P6SM SCT025 SCT250
     FM020500 24004KT P6SM FEW020 SCT250
     FM021400 28005KT P6SM VCSH SCT025 SCT250
     FM021700 16009KT P6SM VCTS SCT035CB SCT250=

Latest METAR

601
SAUS70 KWBC 020000 RRJ
MTRILM
METAR KILM 012353Z AUTO 20010KT 10SM FEW021 26/22 A2997 RMK AO2 SLP149
60000 T02610222 10294 20261 58004


USA.gov is the U.S. government's official web portal to all federal, state and local government web resources and services.